createdAt,value
2022-12-23T00:01:06.594Z,26.10
2022-12-23T00:03:34.749Z,24.67
2022-12-23T00:06:11.690Z,22.62
2022-12-23T00:08:40.287Z,23.58
2022-12-23T00:11:13.368Z,23.02
2022-12-23T00:13:59.776Z,25.43
2022-12-23T00:16:27.441Z,25.45
2022-12-23T00:18:55.504Z,26.50
2022-12-23T00:21:23.180Z,27.48
2022-12-23T00:23:51.406Z,24.35
2022-12-23T00:26:22.697Z,23.60
2022-12-23T00:28:50.931Z,24.45
2022-12-23T00:31:19.987Z,24.63
2022-12-23T00:33:49.411Z,24.75
2022-12-23T00:36:18.602Z,23.87
2022-12-23T00:39:05.886Z,22.90
2022-12-23T00:41:52.733Z,23.65
2022-12-23T00:44:20.639Z,23.33
2022-12-23T00:46:48.509Z,24.42
2022-12-23T00:49:35.870Z,23.27
2022-12-23T00:52:04.641Z,21.07
2022-12-23T00:54:32.292Z,22.42
2022-12-23T00:57:00.598Z,22.60
2022-12-23T00:59:28.797Z,22.85
2022-12-23T01:02:15.021Z,24.15
2022-12-23T01:05:01.723Z,23.43
2022-12-23T01:07:29.622Z,22.33
2022-12-23T01:09:57.473Z,23.00
2022-12-23T01:12:25.018Z,22.95
2022-12-23T01:14:52.574Z,21.87
2022-12-23T01:17:20.586Z,22.80
2022-12-23T01:19:48.663Z,23.27
2022-12-23T01:22:16.208Z,23.65
2022-12-23T01:24:44.013Z,22.05
2022-12-23T01:27:11.644Z,20.73
2022-12-23T01:29:42.951Z,21.13
2022-12-23T01:32:10.911Z,22.23
2022-12-23T01:34:38.533Z,21.98
2022-12-23T01:37:06.232Z,20.50
2022-12-23T01:39:34.528Z,20.12
2022-12-23T01:42:20.988Z,19.60
2022-12-23T01:44:56.762Z,19.95
2022-12-23T01:47:40.308Z,21.02
2022-12-23T01:50:21.234Z,20.58
2022-12-23T01:53:06.446Z,19.52
2022-12-23T01:55:48.795Z,18.53
2022-12-23T01:58:30.880Z,18.70
2022-12-23T02:01:17.825Z,17.65
2022-12-23T02:03:46.611Z,15.85
2022-12-23T02:06:41.377Z,15.95
2022-12-23T02:09:20.546Z,14.70
2022-12-23T02:12:03.018Z,14.50
2022-12-23T02:15:18.428Z,13.62
2022-12-23T02:18:15.296Z,12.93
2022-12-23T02:21:08.027Z,12.35
2022-12-23T02:23:44.765Z,12.33
2022-12-23T02:26:30.677Z,12.82
2022-12-23T02:29:17.112Z,10.48
2022-12-23T02:32:00.110Z,10.82
2022-12-23T02:34:56.947Z,10.25
2022-12-23T02:37:34.759Z,9.60
2022-12-23T02:40:13.107Z,10.50
2022-12-23T02:42:45.653Z,11.57
2022-12-23T02:45:23.677Z,12.00
2022-12-23T02:48:30.010Z,11.15
2022-12-23T02:50:58.694Z,11.50
2022-12-23T02:53:32.444Z,11.88
2022-12-23T02:56:01.253Z,11.77
2022-12-23T02:58:37.603Z,12.70
2022-12-23T03:01:06.705Z,11.30
2022-12-23T03:03:35.757Z,11.63
2022-12-23T03:06:13.694Z,12.23
2022-12-23T03:08:43.465Z,11.88
2022-12-23T03:11:12.721Z,12.68
2022-12-23T03:13:49.171Z,13.48
2022-12-23T03:16:41.905Z,12.37
2022-12-23T03:19:32.496Z,13.70
2022-12-23T03:22:29.718Z,14.73
2022-12-23T03:25:02.992Z,10.95
2022-12-23T03:27:36.428Z,12.20
2022-12-23T03:30:14.595Z,12.53
2022-12-23T03:32:49.839Z,13.90
2022-12-23T03:35:20.789Z,12.77
2022-12-23T03:37:50.266Z,17.35
2022-12-23T03:40:31.210Z,16.98
2022-12-23T03:43:04.353Z,19.87
2022-12-23T03:45:40.413Z,20.33
2022-12-23T03:48:15.932Z,20.17
2022-12-23T03:50:44.310Z,20.23
2022-12-23T03:53:26.039Z,21.23
2022-12-23T03:56:01.457Z,23.03
2022-12-23T03:58:48.933Z,23.73
2022-12-23T04:01:22.667Z,22.52
2022-12-23T04:04:05.941Z,22.25
2022-12-23T04:06:41.907Z,22.05
2022-12-23T04:09:10.171Z,20.73
2022-12-23T04:11:37.721Z,21.12
2022-12-23T04:14:05.290Z,22.15
2022-12-23T04:16:33.628Z,21.85
2022-12-23T04:19:01.380Z,22.50
2022-12-23T04:21:29.356Z,21.80
2022-12-23T04:23:57.179Z,21.45
2022-12-23T04:26:24.642Z,21.25
2022-12-23T04:28:52.395Z,19.20
2022-12-23T04:31:20.282Z,20.45
2022-12-23T04:33:48.799Z,18.73
2022-12-23T04:36:16.366Z,18.75
2022-12-23T04:38:44.240Z,19.42
2022-12-23T04:41:11.742Z,20.17
2022-12-23T04:43:39.293Z,19.02
2022-12-23T04:46:07.113Z,21.33
2022-12-23T04:48:35.792Z,18.23
2022-12-23T04:51:03.868Z,17.92
2022-12-23T04:53:31.786Z,19.08
2022-12-23T04:55:59.358Z,18.67
2022-12-23T04:58:26.903Z,20.47
2022-12-23T05:01:06.713Z,20.23
2022-12-23T05:03:34.990Z,19.92
2022-12-23T05:06:03.142Z,20.73
2022-12-23T05:08:31.036Z,18.87
2022-12-23T05:10:58.667Z,17.23
2022-12-23T05:13:26.512Z,15.73
2022-12-23T05:15:55.105Z,15.98
2022-12-23T05:18:23.404Z,14.80
2022-12-23T05:20:51.553Z,15.63
2022-12-23T05:23:19.121Z,14.43
2022-12-23T05:25:53.702Z,14.75
2022-12-23T05:28:22.374Z,14.35
2022-12-23T05:30:50.366Z,14.18
2022-12-23T05:33:17.960Z,14.65
2022-12-23T05:35:45.772Z,15.10
2022-12-23T05:38:13.296Z,15.70
2022-12-23T05:40:40.844Z,14.48
2022-12-23T05:43:08.850Z,13.35
2022-12-23T05:45:36.941Z,14.30
2022-12-23T05:48:04.500Z,13.83
2022-12-23T05:50:32.392Z,14.77
2022-12-23T05:53:02.495Z,16.27
2022-12-23T05:55:30.159Z,16.33
2022-12-23T05:57:58.053Z,15.25
2022-12-23T06:00:25.834Z,19.50
2022-12-23T06:02:54.521Z,18.55
2022-12-23T06:05:22.446Z,21.62
2022-12-23T06:07:50.029Z,20.00
2022-12-23T06:10:19.477Z,20.40
2022-12-23T06:12:47.069Z,23.90
2022-12-23T06:15:15.604Z,21.33
2022-12-23T06:17:43.568Z,22.13
2022-12-23T06:20:19.681Z,21.25
2022-12-23T06:22:48.432Z,22.15
2022-12-23T06:25:16.135Z,24.63
2022-12-23T06:27:43.765Z,21.87
2022-12-23T06:30:13.243Z,20.70
2022-12-23T06:32:41.637Z,20.42
2022-12-23T06:35:09.963Z,21.50
2022-12-23T06:37:38.016Z,19.77
2022-12-23T06:40:06.548Z,20.15
2022-12-23T06:42:34.196Z,21.62
2022-12-23T06:45:02.021Z,21.90
2022-12-23T06:47:29.625Z,22.65
2022-12-23T06:49:57.900Z,23.80
2022-12-23T06:52:25.735Z,22.70
2022-12-23T06:54:53.302Z,22.90
2022-12-23T06:57:20.923Z,23.67
2022-12-23T06:59:49.918Z,24.52
2022-12-23T07:02:17.714Z,21.60
2022-12-23T07:04:45.462Z,20.77
2022-12-23T07:07:13.343Z,20.77
2022-12-23T07:09:41.080Z,21.35
2022-12-23T07:12:08.722Z,21.55
2022-12-23T07:14:36.689Z,19.40
2022-12-23T07:17:04.291Z,20.33
2022-12-23T07:19:32.518Z,19.92
2022-12-23T07:22:00.325Z,19.95
2022-12-23T07:24:28.022Z,19.60
2022-12-23T07:26:56.002Z,20.83
2022-12-23T07:29:23.830Z,21.90
2022-12-23T07:31:51.366Z,22.67
2022-12-23T07:34:19.084Z,20.80
2022-12-23T07:36:46.926Z,19.98
2022-12-23T07:39:14.474Z,17.53
2022-12-23T07:41:42.065Z,18.58
2022-12-23T07:44:09.994Z,19.37
2022-12-23T07:46:38.040Z,20.35
2022-12-23T07:49:05.985Z,23.17
2022-12-23T07:51:33.910Z,21.83
2022-12-23T07:54:01.470Z,21.42
2022-12-23T07:56:29.003Z,22.27
2022-12-23T07:58:56.824Z,20.15
2022-12-23T08:01:24.390Z,20.50
2022-12-23T08:03:52.445Z,21.13
2022-12-23T08:06:20.009Z,22.55
2022-12-23T08:08:47.647Z,23.73
2022-12-23T08:11:16.252Z,22.80
2022-12-23T08:13:45.111Z,20.45
2022-12-23T08:16:13.034Z,20.93
2022-12-23T08:18:42.086Z,19.23
2022-12-23T08:21:15.833Z,18.15
2022-12-23T08:23:43.790Z,18.40
2022-12-23T08:26:13.415Z,17.37
2022-12-23T08:28:42.562Z,17.30
2022-12-23T08:31:18.367Z,18.98
2022-12-23T08:33:47.878Z,19.05
2022-12-23T08:36:22.745Z,18.37
2022-12-23T08:38:52.999Z,18.52
2022-12-23T08:41:24.677Z,18.87
2022-12-23T08:43:52.429Z,19.83
2022-12-23T08:46:20.252Z,19.80
2022-12-23T08:48:49.756Z,17.92
2022-12-23T08:51:18.907Z,19.70
2022-12-23T08:53:46.975Z,19.17
2022-12-23T08:56:20.310Z,18.83
2022-12-23T08:58:49.835Z,15.32
2022-12-23T09:01:19.491Z,18.67
2022-12-23T09:03:47.266Z,15.13
2022-12-23T09:06:18.204Z,14.23
2022-12-23T09:08:49.193Z,13.80
2022-12-23T09:11:22.243Z,13.00
2022-12-23T09:13:50.474Z,12.73
2022-12-23T09:16:18.707Z,11.85
2022-12-23T09:18:46.396Z,13.80
2022-12-23T09:21:17.988Z,11.98
2022-12-23T09:23:45.730Z,14.23
2022-12-23T09:26:18.697Z,15.52
2022-12-23T09:28:46.637Z,11.88
2022-12-23T09:31:15.070Z,13.30
2022-12-23T09:33:42.856Z,13.95
2022-12-23T09:36:10.661Z,11.82
2022-12-23T09:38:38.179Z,12.93
2022-12-23T09:41:36.693Z,13.48
2022-12-23T09:44:43.217Z,14.47
2022-12-23T09:47:17.635Z,15.57
2022-12-23T09:49:55.345Z,15.50
2022-12-23T09:52:27.685Z,14.70
2022-12-23T09:54:55.863Z,15.32
2022-12-23T09:57:41.637Z,16.27
2022-12-23T10:00:14.751Z,17.80
2022-12-23T10:02:45.652Z,18.90
2022-12-23T10:05:25.248Z,17.30
2022-12-23T10:08:00.227Z,14.75
2022-12-23T10:10:52.824Z,16.40
2022-12-23T10:13:37.737Z,18.60
2022-12-23T10:16:09.732Z,17.70
2022-12-23T10:18:52.632Z,19.05
2022-12-23T10:21:29.325Z,19.75
2022-12-23T10:23:59.645Z,19.07
2022-12-23T10:26:47.051Z,18.10
2022-12-23T10:29:23.668Z,20.15
2022-12-23T10:32:34.488Z,19.48
2022-12-23T10:35:14.587Z,19.77
2022-12-23T10:37:50.301Z,18.63
2022-12-23T10:41:12.614Z,18.05
2022-12-23T10:43:52.111Z,18.62
2022-12-23T10:46:20.682Z,18.10
2022-12-23T10:49:03.195Z,19.05
2022-12-23T10:51:43.145Z,18.70
2022-12-23T10:54:15.780Z,16.20
2022-12-23T10:56:44.162Z,16.77
2022-12-23T10:59:16.457Z,17.55
2022-12-23T11:01:47.615Z,20.30
2022-12-23T11:04:18.328Z,17.50
2022-12-23T11:07:10.727Z,18.35
2022-12-23T11:09:54.622Z,18.10
2022-12-23T11:12:24.480Z,19.45
2022-12-23T11:14:57.498Z,18.55
2022-12-23T11:17:27.707Z,19.03
2022-12-23T11:20:16.778Z,19.33
2022-12-23T11:22:52.094Z,20.15
2022-12-23T11:25:29.081Z,19.05
2022-12-23T11:27:58.833Z,18.77
2022-12-23T11:30:27.202Z,19.97
2022-12-23T11:32:54.863Z,18.55
2022-12-23T11:35:32.659Z,18.50
2022-12-23T11:38:01.454Z,19.23
2022-12-23T11:40:35.722Z,17.98
2022-12-23T11:43:14.007Z,17.27
2022-12-23T11:45:41.991Z,16.05
2022-12-23T11:48:27.968Z,15.77
2022-12-23T11:51:00.693Z,15.57
2022-12-23T11:53:29.011Z,16.85
2022-12-23T11:56:03.326Z,15.97
2022-12-23T11:58:40.673Z,16.30
2022-12-23T12:01:17.186Z,17.80
2022-12-23T12:03:51.606Z,18.42
2022-12-23T12:06:19.811Z,15.98
2022-12-23T12:08:51.906Z,16.80
2022-12-23T12:11:26.121Z,16.90
2022-12-23T12:13:58.752Z,18.52
2022-12-23T12:16:54.562Z,16.58
2022-12-23T12:19:24.625Z,16.90
2022-12-23T12:21:56.723Z,16.50
2022-12-23T12:24:28.731Z,17.70
2022-12-23T12:27:01.784Z,18.25
2022-12-23T12:29:46.836Z,15.65
2022-12-23T12:32:18.085Z,20.58
2022-12-23T12:34:56.494Z,20.77
2022-12-23T12:37:38.127Z,18.62
2022-12-23T12:40:11.685Z,17.30
2022-12-23T12:42:43.571Z,15.88
2022-12-23T12:45:23.833Z,17.10
2022-12-23T12:48:18.335Z,15.60
2022-12-23T12:51:16.788Z,15.93
2022-12-23T12:53:52.881Z,17.05
2022-12-23T12:56:40.769Z,15.25
2022-12-23T12:59:17.816Z,15.10
2022-12-23T13:01:57.883Z,16.23
2022-12-23T13:04:51.946Z,14.57
2022-12-23T13:07:22.590Z,16.95
2022-12-23T13:09:56.140Z,14.68
2022-12-23T13:12:58.679Z,13.70
2022-12-23T13:15:33.628Z,15.50
2022-12-23T13:18:21.401Z,16.73
2022-12-23T13:20:54.595Z,14.95
2022-12-23T13:23:44.287Z,15.40
2022-12-23T13:26:44.963Z,16.87
2022-12-23T13:29:31.120Z,15.23
2022-12-23T13:32:08.377Z,14.00
2022-12-23T13:34:53.783Z,15.13
2022-12-23T13:37:24.294Z,14.82
2022-12-23T13:39:58.363Z,15.48
2022-12-23T13:42:31.836Z,15.10
2022-12-23T13:45:00.278Z,14.57
2022-12-23T13:47:59.687Z,14.32
2022-12-23T13:50:42.357Z,14.43
2022-12-23T13:53:21.868Z,14.55
2022-12-23T13:55:57.884Z,14.83
2022-12-23T13:58:27.546Z,14.98
2022-12-23T14:01:20.909Z,15.52
2022-12-23T14:03:50.729Z,17.60
2022-12-23T14:06:24.198Z,15.93
2022-12-23T14:08:53.783Z,18.37
2022-12-23T14:11:27.172Z,16.23
2022-12-23T14:14:45.010Z,15.40
2022-12-23T14:17:22.241Z,15.30
2022-12-23T14:20:43.187Z,13.23
2022-12-23T14:23:13.832Z,16.50
2022-12-23T14:25:51.549Z,18.40
2022-12-23T14:28:34.297Z,24.05
2022-12-23T14:31:05.000Z,20.37
2022-12-23T14:33:37.456Z,21.80
2022-12-23T14:36:21.197Z,18.87
2022-12-23T14:39:13.959Z,19.52
2022-12-23T14:41:51.804Z,18.58
2022-12-23T14:44:45.734Z,17.85
2022-12-23T14:47:35.221Z,17.12
2022-12-23T14:50:42.340Z,15.70
2022-12-23T14:53:34.111Z,14.93
2022-12-23T14:56:11.038Z,18.42
2022-12-23T14:58:51.236Z,18.67
2022-12-23T15:01:27.091Z,27.98
2022-12-23T15:04:01.344Z,25.70
2022-12-23T15:06:46.650Z,20.58
2022-12-23T15:09:25.025Z,18.75
2022-12-23T15:11:54.676Z,17.12
2022-12-23T15:14:32.076Z,23.02
2022-12-23T15:16:59.995Z,25.47
2022-12-23T15:19:28.105Z,26.40
2022-12-23T15:22:17.913Z,26.83
2022-12-23T15:24:49.141Z,34.28
2022-12-23T15:27:27.098Z,56.45
2022-12-23T15:29:56.324Z,47.97
2022-12-23T15:32:24.882Z,40.80
2022-12-23T15:34:52.971Z,38.35
2022-12-23T15:37:29.685Z,35.05
2022-12-23T15:40:11.462Z,25.67
2022-12-23T15:42:47.287Z,18.70
2022-12-23T15:45:39.670Z,17.37
2022-12-23T15:48:29.838Z,14.13
2022-12-23T15:51:04.819Z,13.73
2022-12-23T15:53:35.341Z,18.12
2022-12-23T15:56:08.295Z,19.00
2022-12-23T15:58:38.901Z,15.13
2022-12-23T16:01:07.001Z,13.45
2022-12-23T16:03:38.226Z,12.77
2022-12-23T16:06:06.973Z,13.13
2022-12-23T16:08:35.001Z,11.77
2022-12-23T16:11:18.722Z,12.20
2022-12-23T16:14:01.633Z,11.60
2022-12-23T16:16:37.415Z,11.18
2022-12-23T16:19:05.994Z,10.88
2022-12-23T16:21:35.734Z,12.40
2022-12-23T16:24:08.171Z,10.90
2022-12-23T16:26:41.865Z,10.73
2022-12-23T16:29:10.381Z,11.85
2022-12-23T16:31:40.567Z,14.75
2022-12-23T16:34:13.041Z,13.90
2022-12-23T16:36:40.922Z,11.95
2022-12-23T16:39:17.548Z,14.25
2022-12-23T16:41:45.702Z,13.80
2022-12-23T16:44:13.314Z,12.27
2022-12-23T16:46:44.421Z,15.80
2022-12-23T16:49:16.231Z,21.45
2022-12-23T16:51:43.897Z,34.10
2022-12-23T16:54:19.964Z,37.05
2022-12-23T16:56:47.541Z,32.65
2022-12-23T16:59:15.942Z,32.47
2022-12-23T17:01:46.302Z,31.85
2022-12-23T17:04:14.578Z,32.13
2022-12-23T17:06:42.662Z,32.15
2022-12-23T17:09:10.670Z,32.13
2022-12-23T17:11:42.361Z,30.23
2022-12-23T17:14:22.052Z,30.60
2022-12-23T17:16:50.454Z,27.13
2022-12-23T17:19:28.015Z,29.83
2022-12-23T17:22:00.294Z,28.15
2022-12-23T17:24:28.198Z,29.93
2022-12-23T17:26:59.055Z,28.15
2022-12-23T17:29:27.099Z,26.48
2022-12-23T17:31:54.984Z,24.67
2022-12-23T17:34:24.211Z,26.52
2022-12-23T17:36:52.852Z,24.93
2022-12-23T17:39:21.834Z,33.95
2022-12-23T17:41:49.845Z,28.33
2022-12-23T17:44:18.153Z,22.65
2022-12-23T17:46:46.610Z,20.60
2022-12-23T17:49:14.401Z,15.87
2022-12-23T17:51:42.613Z,19.62
2022-12-23T17:54:24.806Z,26.33
2022-12-23T17:56:52.916Z,21.35
2022-12-23T17:59:21.668Z,16.30
2022-12-23T18:01:49.481Z,11.57
2022-12-23T18:04:17.483Z,10.55
2022-12-23T18:06:45.095Z,10.50
2022-12-23T18:09:12.708Z,8.77
2022-12-23T18:11:44.171Z,7.80
2022-12-23T18:14:18.416Z,7.13
2022-12-23T18:16:46.588Z,6.37
2022-12-23T18:19:20.238Z,10.32
2022-12-23T18:21:48.522Z,9.93
2022-12-23T18:24:16.462Z,8.60
2022-12-23T18:26:44.769Z,7.53
2022-12-23T18:29:13.420Z,6.80
2022-12-23T18:31:51.667Z,6.47
2022-12-23T18:34:20.482Z,5.43
2022-12-23T18:36:48.424Z,5.22
2022-12-23T18:39:16.225Z,5.13
2022-12-23T18:41:44.130Z,13.88
2022-12-23T18:44:20.123Z,21.05
2022-12-23T18:46:49.041Z,27.60
2022-12-23T18:49:16.934Z,25.58
2022-12-23T18:51:44.864Z,22.50
2022-12-23T18:54:17.213Z,31.55
2022-12-23T18:56:45.099Z,34.33
2022-12-23T18:59:16.907Z,35.00
2022-12-23T19:01:44.829Z,34.47
2022-12-23T19:04:12.971Z,29.30
2022-12-23T19:06:41.073Z,32.85
2022-12-23T19:09:17.840Z,38.53
2022-12-23T19:11:47.308Z,38.53
2022-12-23T19:14:15.177Z,40.65
2022-12-23T19:16:49.226Z,39.57
2022-12-23T19:19:19.791Z,36.60
2022-12-23T19:21:47.451Z,30.08
2022-12-23T19:24:15.009Z,24.20
2022-12-23T19:26:42.801Z,23.40
2022-12-23T19:29:10.455Z,22.93
2022-12-23T19:31:38.039Z,22.30
2022-12-23T19:34:09.742Z,22.05
2022-12-23T19:36:42.273Z,19.85
2022-12-23T19:39:16.396Z,18.55
2022-12-23T19:41:46.236Z,17.27
2022-12-23T19:44:14.364Z,18.05
2022-12-23T19:46:42.115Z,17.83
2022-12-23T19:49:12.868Z,16.33
2022-12-23T19:51:45.626Z,14.68
2022-12-23T19:54:13.204Z,14.63
2022-12-23T19:56:41.251Z,14.68
2022-12-23T19:59:09.378Z,13.62
2022-12-23T20:01:37.207Z,14.87
2022-12-23T20:04:05.382Z,54.60
2022-12-23T20:06:35.153Z,49.93
2022-12-23T20:09:06.493Z,44.80
2022-12-23T20:11:37.496Z,38.05
2022-12-23T20:14:06.612Z,38.67
2022-12-23T20:16:35.591Z,35.83
2022-12-23T20:19:03.636Z,32.90
2022-12-23T20:21:31.351Z,29.40
2022-12-23T20:23:59.189Z,29.83
2022-12-23T20:26:27.753Z,25.75
2022-12-23T20:28:56.317Z,28.73
2022-12-23T20:31:29.015Z,36.13
2022-12-23T20:33:58.315Z,33.72
2022-12-23T20:36:28.565Z,21.80
2022-12-23T20:38:56.928Z,28.62
2022-12-23T20:41:26.741Z,39.45
2022-12-23T20:44:32.286Z,26.43
2022-12-23T20:46:42.698Z,19.17
2022-12-23T20:49:10.655Z,21.02
2022-12-23T20:51:38.243Z,34.95
2022-12-23T20:54:05.932Z,34.05
2022-12-23T20:56:33.764Z,35.97
2022-12-23T20:59:04.232Z,36.08
2022-12-23T21:01:37.876Z,36.25
2022-12-23T21:04:08.397Z,35.13
2022-12-23T21:06:36.439Z,37.67
2022-12-23T21:09:06.829Z,34.07
2022-12-23T21:11:38.163Z,37.45
2022-12-23T21:14:07.714Z,33.47
2022-12-23T21:16:37.197Z,32.03
2022-12-23T21:19:06.510Z,28.75
2022-12-23T21:21:34.362Z,29.00
2022-12-23T21:24:04.500Z,24.87
2022-12-23T21:26:33.427Z,20.00
2022-12-23T21:29:01.984Z,17.37
2022-12-23T21:31:31.050Z,15.75
2022-12-23T21:33:58.897Z,14.70
2022-12-23T21:36:31.114Z,16.05
2022-12-23T21:39:00.092Z,16.23
2022-12-23T21:41:30.189Z,14.18
2022-12-23T21:43:58.990Z,14.52
2022-12-23T21:46:28.042Z,12.97
2022-12-23T21:48:56.741Z,13.55
2022-12-23T21:51:38.526Z,12.95
2022-12-23T21:54:07.965Z,12.05
2022-12-23T21:56:35.838Z,12.57
2022-12-23T21:59:06.498Z,10.67
2022-12-23T22:01:35.004Z,11.45
2022-12-23T22:04:03.405Z,10.40
2022-12-23T22:06:33.662Z,15.52
2022-12-23T22:09:01.234Z,16.55
2022-12-23T22:11:31.334Z,16.60
2022-12-23T22:13:59.805Z,24.40
2022-12-23T22:16:28.943Z,28.62
2022-12-23T22:18:58.401Z,29.40
2022-12-23T22:21:27.706Z,27.50
2022-12-23T22:23:55.867Z,25.03
2022-12-23T22:26:26.480Z,25.35
2022-12-23T22:28:55.742Z,27.20
2022-12-23T22:31:40.921Z,30.10
2022-12-23T22:34:12.786Z,28.08
2022-12-23T22:36:40.703Z,31.03
2022-12-23T22:39:08.551Z,32.50
2022-12-23T22:41:37.981Z,31.52
2022-12-23T22:44:05.929Z,31.45
2022-12-23T22:46:33.915Z,31.23
2022-12-23T22:49:01.742Z,31.27
2022-12-23T22:51:31.167Z,30.50
2022-12-23T22:53:59.744Z,30.73
2022-12-23T22:56:30.169Z,31.45
2022-12-23T22:58:58.177Z,32.90
2022-12-23T23:01:33.490Z,32.00
2022-12-23T23:04:02.976Z,30.77
2022-12-23T23:06:33.072Z,30.65
2022-12-23T23:09:01.413Z,30.55
2022-12-23T23:11:29.283Z,31.67
2022-12-23T23:13:57.384Z,34.13
2022-12-23T23:16:26.218Z,32.42
2022-12-23T23:18:54.482Z,32.60
2022-12-23T23:21:22.260Z,36.85
2022-12-23T23:23:50.330Z,34.15
2022-12-23T23:26:19.091Z,33.27
2022-12-23T23:28:46.839Z,32.78
2022-12-23T23:31:41.000Z,28.50
2022-12-23T23:34:02.449Z,27.92
2022-12-23T23:36:30.308Z,22.50
2022-12-23T23:38:57.880Z,21.33
2022-12-23T23:41:25.587Z,23.87
2022-12-23T23:43:53.549Z,21.27
2022-12-23T23:46:21.192Z,23.52
2022-12-23T23:48:48.914Z,23.50
2022-12-23T23:51:16.754Z,22.87
2022-12-23T23:53:44.421Z,20.92
2022-12-23T23:56:11.961Z,20.85
2022-12-23T23:58:40.433Z,20.60
